sensor_id;sensor_type;location;lat;lon;timestamp;P1;durP1;ratioP1;P2;durP2;ratioP2
21833;SDS011;11079;51.092;3.458;2023-07-31T00:00:10;16.85;;;6.07;;
21833;SDS011;11079;51.092;3.458;2023-07-31T00:02:36;16.38;;;6.40;;
21833;SDS011;11079;51.092;3.458;2023-07-31T00:05:03;20.75;;;8.02;;
21833;SDS011;11079;51.092;3.458;2023-07-31T00:07:28;24.02;;;7.35;;
21833;SDS011;11079;51.092;3.458;2023-07-31T00:09:54;20.63;;;7.00;;
21833;SDS011;11079;51.092;3.458;2023-07-31T00:12:21;17.20;;;6.70;;
21833;SDS011;11079;51.092;3.458;2023-07-31T00:14:49;18.85;;;7.03;;
21833;SDS011;11079;51.092;3.458;2023-07-31T00:17:14;18.98;;;6.60;;
21833;SDS011;11079;51.092;3.458;2023-07-31T00:19:41;17.98;;;6.72;;
21833;SDS011;11079;51.092;3.458;2023-07-31T00:22:07;21.20;;;7.07;;
21833;SDS011;11079;51.092;3.458;2023-07-31T00:24:32;20.63;;;7.68;;
21833;SDS011;11079;51.092;3.458;2023-07-31T00:26:58;20.70;;;6.97;;
21833;SDS011;11079;51.092;3.458;2023-07-31T00:29:23;17.98;;;7.15;;
21833;SDS011;11079;51.092;3.458;2023-07-31T00:31:49;21.48;;;7.38;;
21833;SDS011;11079;51.092;3.458;2023-07-31T00:34:15;17.52;;;6.32;;
21833;SDS011;11079;51.092;3.458;2023-07-31T00:36:40;21.27;;;6.60;;
21833;SDS011;11079;51.092;3.458;2023-07-31T00:39:06;17.08;;;7.05;;
21833;SDS011;11079;51.092;3.458;2023-07-31T00:41:31;20.60;;;6.88;;
21833;SDS011;11079;51.092;3.458;2023-07-31T00:43:57;17.63;;;6.95;;
21833;SDS011;11079;51.092;3.458;2023-07-31T00:46:22;21.70;;;7.10;;
21833;SDS011;11079;51.092;3.458;2023-07-31T00:48:48;17.15;;;7.22;;
21833;SDS011;11079;51.092;3.458;2023-07-31T00:51:14;19.10;;;6.50;;
21833;SDS011;11079;51.092;3.458;2023-07-31T00:53:40;14.77;;;6.25;;
21833;SDS011;11079;51.092;3.458;2023-07-31T00:56:07;24.67;;;7.68;;
21833;SDS011;11079;51.092;3.458;2023-07-31T00:58:33;18.95;;;6.72;;
21833;SDS011;11079;51.092;3.458;2023-07-31T01:00:59;20.38;;;7.85;;
21833;SDS011;11079;51.092;3.458;2023-07-31T01:03:25;16.80;;;6.65;;
21833;SDS011;11079;51.092;3.458;2023-07-31T01:08:48;17.70;;;6.13;;
21833;SDS011;11079;51.092;3.458;2023-07-31T01:11:33;14.90;;;6.07;;
21833;SDS011;11079;51.092;3.458;2023-07-31T01:14:03;17.20;;;6.18;;
21833;SDS011;11079;51.092;3.458;2023-07-31T01:16:29;17.60;;;7.30;;
21833;SDS011;11079;51.092;3.458;2023-07-31T01:18:55;17.70;;;6.63;;
21833;SDS011;11079;51.092;3.458;2023-07-31T01:27:34;19.50;;;5.85;;
21833;SDS011;11079;51.092;3.458;2023-07-31T01:32:08;13.43;;;6.05;;
21833;SDS011;11079;51.092;3.458;2023-07-31T01:34:35;17.40;;;6.07;;
21833;SDS011;11079;51.092;3.458;2023-07-31T01:37:02;18.95;;;6.32;;
21833;SDS011;11079;51.092;3.458;2023-07-31T01:39:28;20.08;;;6.13;;
21833;SDS011;11079;51.092;3.458;2023-07-31T01:41:53;16.05;;;5.63;;
21833;SDS011;11079;51.092;3.458;2023-07-31T01:44:19;20.60;;;6.63;;
21833;SDS011;11079;51.092;3.458;2023-07-31T01:46:45;18.33;;;6.18;;
21833;SDS011;11079;51.092;3.458;2023-07-31T01:49:10;15.68;;;6.05;;
21833;SDS011;11079;51.092;3.458;2023-07-31T01:51:36;16.55;;;5.35;;
21833;SDS011;11079;51.092;3.458;2023-07-31T01:54:01;16.50;;;5.35;;
21833;SDS011;11079;51.092;3.458;2023-07-31T01:56:27;11.48;;;5.10;;
21833;SDS011;11079;51.092;3.458;2023-07-31T01:58:53;14.68;;;5.55;;
21833;SDS011;11079;51.092;3.458;2023-07-31T02:01:19;13.18;;;5.68;;
21833;SDS011;11079;51.092;3.458;2023-07-31T02:03:44;18.95;;;5.22;;
21833;SDS011;11079;51.092;3.458;2023-07-31T02:06:10;16.60;;;6.13;;
21833;SDS011;11079;51.092;3.458;2023-07-31T02:08:36;15.98;;;5.15;;
21833;SDS011;11079;51.092;3.458;2023-07-31T02:11:01;13.05;;;4.63;;
21833;SDS011;11079;51.092;3.458;2023-07-31T02:13:27;11.82;;;4.57;;
21833;SDS011;11079;51.092;3.458;2023-07-31T02:15:52;11.52;;;4.80;;
21833;SDS011;11079;51.092;3.458;2023-07-31T02:18:18;14.82;;;5.32;;
21833;SDS011;11079;51.092;3.458;2023-07-31T02:20:48;14.10;;;4.65;;
21833;SDS011;11079;51.092;3.458;2023-07-31T02:23:15;13.00;;;4.65;;
21833;SDS011;11079;51.092;3.458;2023-07-31T02:25:40;11.73;;;4.80;;
21833;SDS011;11079;51.092;3.458;2023-07-31T02:28:06;14.73;;;5.43;;
21833;SDS011;11079;51.092;3.458;2023-07-31T02:30:31;12.85;;;5.13;;
21833;SDS011;11079;51.092;3.458;2023-07-31T02:32:57;22.77;;;5.88;;
21833;SDS011;11079;51.092;3.458;2023-07-31T02:35:23;13.02;;;4.72;;
21833;SDS011;11079;51.092;3.458;2023-07-31T02:37:48;18.70;;;5.43;;
21833;SDS011;11079;51.092;3.458;2023-07-31T02:40:14;15.70;;;5.20;;
21833;SDS011;11079;51.092;3.458;2023-07-31T02:42:39;9.32;;;4.68;;
21833;SDS011;11079;51.092;3.458;2023-07-31T02:45:05;19.27;;;6.05;;
21833;SDS011;11079;51.092;3.458;2023-07-31T02:47:31;16.67;;;5.28;;
21833;SDS011;11079;51.092;3.458;2023-07-31T02:49:57;15.82;;;5.78;;
21833;SDS011;11079;51.092;3.458;2023-07-31T02:52:22;10.88;;;5.03;;
21833;SDS011;11079;51.092;3.458;2023-07-31T02:54:48;13.60;;;5.13;;
21833;SDS011;11079;51.092;3.458;2023-07-31T02:57:13;19.90;;;6.40;;
21833;SDS011;11079;51.092;3.458;2023-07-31T02:59:39;19.48;;;5.43;;
21833;SDS011;11079;51.092;3.458;2023-07-31T03:02:05;12.90;;;5.30;;
21833;SDS011;11079;51.092;3.458;2023-07-31T03:04:30;16.20;;;4.88;;
21833;SDS011;11079;51.092;3.458;2023-07-31T03:06:56;15.20;;;4.90;;
21833;SDS011;11079;51.092;3.458;2023-07-31T03:09:22;17.27;;;6.07;;
21833;SDS011;11079;51.092;3.458;2023-07-31T03:11:47;12.98;;;5.45;;
21833;SDS011;11079;51.092;3.458;2023-07-31T03:14:13;13.32;;;5.60;;
21833;SDS011;11079;51.092;3.458;2023-07-31T03:16:38;16.35;;;6.05;;
21833;SDS011;11079;51.092;3.458;2023-07-31T03:19:04;16.88;;;6.53;;
21833;SDS011;11079;51.092;3.458;2023-07-31T03:21:30;13.65;;;5.47;;
21833;SDS011;11079;51.092;3.458;2023-07-31T03:23:55;13.35;;;5.07;;
21833;SDS011;11079;51.092;3.458;2023-07-31T03:26:21;14.05;;;5.70;;
21833;SDS011;11079;51.092;3.458;2023-07-31T03:28:47;12.93;;;5.20;;
21833;SDS011;11079;51.092;3.458;2023-07-31T03:31:12;16.42;;;6.03;;
21833;SDS011;11079;51.092;3.458;2023-07-31T03:33:38;19.80;;;6.65;;
21833;SDS011;11079;51.092;3.458;2023-07-31T03:36:04;17.05;;;6.63;;
21833;SDS011;11079;51.092;3.458;2023-07-31T03:38:29;15.55;;;5.97;;
21833;SDS011;11079;51.092;3.458;2023-07-31T03:40:55;17.52;;;6.32;;
21833;SDS011;11079;51.092;3.458;2023-07-31T03:43:21;20.80;;;7.28;;
21833;SDS011;11079;51.092;3.458;2023-07-31T03:45:46;16.55;;;5.90;;
21833;SDS011;11079;51.092;3.458;2023-07-31T03:48:13;22.38;;;6.10;;
21833;SDS011;11079;51.092;3.458;2023-07-31T03:50:39;17.50;;;6.50;;
21833;SDS011;11079;51.092;3.458;2023-07-31T03:53:05;19.10;;;6.45;;
21833;SDS011;11079;51.092;3.458;2023-07-31T03:55:30;20.95;;;6.60;;
21833;SDS011;11079;51.092;3.458;2023-07-31T03:57:56;19.88;;;6.88;;
21833;SDS011;11079;51.092;3.458;2023-07-31T04:00:22;16.50;;;6.50;;
21833;SDS011;11079;51.092;3.458;2023-07-31T04:02:47;15.23;;;6.45;;
21833;SDS011;11079;51.092;3.458;2023-07-31T04:05:13;22.80;;;7.15;;
21833;SDS011;11079;51.092;3.458;2023-07-31T04:07:39;19.25;;;7.70;;
21833;SDS011;11079;51.092;3.458;2023-07-31T04:10:04;19.48;;;7.88;;
21833;SDS011;11079;51.092;3.458;2023-07-31T04:12:30;18.98;;;7.40;;
21833;SDS011;11079;51.092;3.458;2023-07-31T04:14:56;23.75;;;7.47;;
21833;SDS011;11079;51.092;3.458;2023-07-31T04:17:21;17.65;;;6.32;;
21833;SDS011;11079;51.092;3.458;2023-07-31T04:19:47;21.08;;;6.95;;
21833;SDS011;11079;51.092;3.458;2023-07-31T04:22:13;18.90;;;7.25;;
21833;SDS011;11079;51.092;3.458;2023-07-31T04:24:38;19.77;;;6.68;;
21833;SDS011;11079;51.092;3.458;2023-07-31T04:27:04;15.07;;;6.63;;
21833;SDS011;11079;51.092;3.458;2023-07-31T04:29:30;21.67;;;6.50;;
21833;SDS011;11079;51.092;3.458;2023-07-31T04:31:55;16.30;;;7.40;;
21833;SDS011;11079;51.092;3.458;2023-07-31T04:34:21;20.02;;;8.70;;
21833;SDS011;11079;51.092;3.458;2023-07-31T04:36:46;13.73;;;6.75;;
21833;SDS011;11079;51.092;3.458;2023-07-31T04:39:12;17.63;;;7.15;;
21833;SDS011;11079;51.092;3.458;2023-07-31T04:41:38;17.95;;;6.70;;
21833;SDS011;11079;51.092;3.458;2023-07-31T04:44:03;16.73;;;6.20;;
21833;SDS011;11079;51.092;3.458;2023-07-31T04:46:29;16.88;;;5.63;;
21833;SDS011;11079;51.092;3.458;2023-07-31T04:48:55;12.85;;;5.22;;
21833;SDS011;11079;51.092;3.458;2023-07-31T04:51:21;14.18;;;5.75;;
21833;SDS011;11079;51.092;3.458;2023-07-31T04:53:46;16.02;;;6.30;;
21833;SDS011;11079;51.092;3.458;2023-07-31T04:56:12;10.95;;;5.00;;
21833;SDS011;11079;51.092;3.458;2023-07-31T04:58:39;14.73;;;5.15;;
21833;SDS011;11079;51.092;3.458;2023-07-31T05:01:04;13.18;;;5.60;;
21833;SDS011;11079;51.092;3.458;2023-07-31T05:03:30;14.20;;;5.88;;
21833;SDS011;11079;51.092;3.458;2023-07-31T05:05:55;15.30;;;5.97;;
21833;SDS011;11079;51.092;3.458;2023-07-31T05:08:21;15.27;;;5.00;;
21833;SDS011;11079;51.092;3.458;2023-07-31T05:10:47;10.85;;;4.78;;
21833;SDS011;11079;51.092;3.458;2023-07-31T05:13:12;11.32;;;4.68;;
21833;SDS011;11079;51.092;3.458;2023-07-31T05:15:38;14.45;;;5.05;;
21833;SDS011;11079;51.092;3.458;2023-07-31T05:18:03;12.95;;;4.90;;
21833;SDS011;11079;51.092;3.458;2023-07-31T05:20:30;10.57;;;4.80;;
21833;SDS011;11079;51.092;3.458;2023-07-31T05:22:55;8.13;;;4.38;;
21833;SDS011;11079;51.092;3.458;2023-07-31T05:25:21;13.18;;;5.18;;
21833;SDS011;11079;51.092;3.458;2023-07-31T05:27:47;10.88;;;4.70;;
21833;SDS011;11079;51.092;3.458;2023-07-31T05:30:12;12.85;;;5.22;;
21833;SDS011;11079;51.092;3.458;2023-07-31T05:32:38;7.75;;;4.45;;
21833;SDS011;11079;51.092;3.458;2023-07-31T05:35:04;13.10;;;5.78;;
21833;SDS011;11079;51.092;3.458;2023-07-31T05:37:30;10.32;;;5.00;;
21833;SDS011;11079;51.092;3.458;2023-07-31T05:39:56;10.13;;;4.72;;
21833;SDS011;11079;51.092;3.458;2023-07-31T05:42:21;12.60;;;5.57;;
21833;SDS011;11079;51.092;3.458;2023-07-31T05:44:47;11.45;;;4.97;;
21833;SDS011;11079;51.092;3.458;2023-07-31T05:47:13;11.30;;;5.32;;
21833;SDS011;11079;51.092;3.458;2023-07-31T05:49:38;9.35;;;4.88;;
21833;SDS011;11079;51.092;3.458;2023-07-31T05:52:04;14.35;;;5.95;;
21833;SDS011;11079;51.092;3.458;2023-07-31T05:54:31;11.55;;;5.30;;
21833;SDS011;11079;51.092;3.458;2023-07-31T05:56:57;10.18;;;5.55;;
21833;SDS011;11079;51.092;3.458;2023-07-31T05:59:22;13.85;;;5.45;;
21833;SDS011;11079;51.092;3.458;2023-07-31T06:01:48;9.85;;;5.53;;
21833;SDS011;11079;51.092;3.458;2023-07-31T06:04:14;20.40;;;6.40;;
21833;SDS011;11079;51.092;3.458;2023-07-31T06:06:39;10.52;;;5.45;;
21833;SDS011;11079;51.092;3.458;2023-07-31T06:09:05;11.25;;;5.10;;
21833;SDS011;11079;51.092;3.458;2023-07-31T06:11:32;12.52;;;5.72;;
21833;SDS011;11079;51.092;3.458;2023-07-31T06:13:58;8.55;;;5.18;;
21833;SDS011;11079;51.092;3.458;2023-07-31T06:16:24;11.52;;;5.65;;
21833;SDS011;11079;51.092;3.458;2023-07-31T06:18:50;15.02;;;5.80;;
21833;SDS011;11079;51.092;3.458;2023-07-31T06:21:16;11.68;;;5.55;;
21833;SDS011;11079;51.092;3.458;2023-07-31T06:23:42;13.15;;;5.30;;
21833;SDS011;11079;51.092;3.458;2023-07-31T06:26:08;17.90;;;6.13;;
21833;SDS011;11079;51.092;3.458;2023-07-31T06:28:35;13.15;;;6.13;;
21833;SDS011;11079;51.092;3.458;2023-07-31T06:31:01;11.70;;;5.22;;
21833;SDS011;11079;51.092;3.458;2023-07-31T06:33:27;10.00;;;5.50;;
21833;SDS011;11079;51.092;3.458;2023-07-31T06:35:53;13.27;;;5.00;;
21833;SDS011;11079;51.092;3.458;2023-07-31T06:38:21;9.88;;;4.90;;
21833;SDS011;11079;51.092;3.458;2023-07-31T06:40:49;10.13;;;4.70;;
21833;SDS011;11079;51.092;3.458;2023-07-31T06:43:14;12.15;;;5.10;;
21833;SDS011;11079;51.092;3.458;2023-07-31T06:45:40;10.25;;;4.57;;
21833;SDS011;11079;51.092;3.458;2023-07-31T06:48:05;8.38;;;4.63;;
21833;SDS011;11079;51.092;3.458;2023-07-31T06:50:31;11.43;;;4.57;;
21833;SDS011;11079;51.092;3.458;2023-07-31T06:52:57;9.15;;;4.30;;
21833;SDS011;11079;51.092;3.458;2023-07-31T06:55:23;5.40;;;3.88;;
21833;SDS011;11079;51.092;3.458;2023-07-31T06:57:50;9.50;;;5.07;;
21833;SDS011;11079;51.092;3.458;2023-07-31T07:00:17;11.25;;;4.25;;
21833;SDS011;11079;51.092;3.458;2023-07-31T07:02:44;10.80;;;4.85;;
21833;SDS011;11079;51.092;3.458;2023-07-31T07:05:12;10.43;;;4.13;;
21833;SDS011;11079;51.092;3.458;2023-07-31T07:07:38;7.82;;;3.97;;
21833;SDS011;11079;51.092;3.458;2023-07-31T07:10:04;10.63;;;3.97;;
21833;SDS011;11079;51.092;3.458;2023-07-31T07:12:31;8.95;;;4.32;;
21833;SDS011;11079;51.092;3.458;2023-07-31T07:14:57;7.65;;;3.58;;
21833;SDS011;11079;51.092;3.458;2023-07-31T07:17:24;10.05;;;4.22;;
21833;SDS011;11079;51.092;3.458;2023-07-31T07:19:50;8.35;;;3.70;;
21833;SDS011;11079;51.092;3.458;2023-07-31T07:22:15;10.57;;;4.38;;
21833;SDS011;11079;51.092;3.458;2023-07-31T07:24:41;11.45;;;4.38;;
21833;SDS011;11079;51.092;3.458;2023-07-31T07:27:07;6.80;;;3.97;;
21833;SDS011;11079;51.092;3.458;2023-07-31T07:29:34;8.45;;;4.28;;
21833;SDS011;11079;51.092;3.458;2023-07-31T07:31:59;7.93;;;3.67;;
21833;SDS011;11079;51.092;3.458;2023-07-31T07:34:26;10.40;;;4.05;;
21833;SDS011;11079;51.092;3.458;2023-07-31T07:36:52;6.18;;;3.35;;
21833;SDS011;11079;51.092;3.458;2023-07-31T07:39:17;6.85;;;3.50;;
21833;SDS011;11079;51.092;3.458;2023-07-31T07:41:43;9.75;;;3.95;;
21833;SDS011;11079;51.092;3.458;2023-07-31T07:44:09;9.50;;;4.18;;
21833;SDS011;11079;51.092;3.458;2023-07-31T07:46:34;9.05;;;4.05;;
21833;SDS011;11079;51.092;3.458;2023-07-31T07:49:00;9.48;;;4.15;;
21833;SDS011;11079;51.092;3.458;2023-07-31T07:51:26;5.55;;;3.05;;
21833;SDS011;11079;51.092;3.458;2023-07-31T07:53:51;4.90;;;2.95;;
21833;SDS011;11079;51.092;3.458;2023-07-31T07:56:17;6.40;;;3.50;;
21833;SDS011;11079;51.092;3.458;2023-07-31T07:58:42;5.65;;;3.25;;
21833;SDS011;11079;51.092;3.458;2023-07-31T08:01:08;6.18;;;3.55;;
21833;SDS011;11079;51.092;3.458;2023-07-31T08:03:34;4.57;;;2.72;;
21833;SDS011;11079;51.092;3.458;2023-07-31T08:05:59;8.27;;;3.10;;
21833;SDS011;11079;51.092;3.458;2023-07-31T08:08:26;3.67;;;2.70;;
21833;SDS011;11079;51.092;3.458;2023-07-31T08:10:52;3.97;;;2.70;;
21833;SDS011;11079;51.092;3.458;2023-07-31T08:13:18;4.65;;;2.63;;
21833;SDS011;11079;51.092;3.458;2023-07-31T08:15:43;3.92;;;2.40;;
21833;SDS011;11079;51.092;3.458;2023-07-31T08:18:09;3.38;;;2.30;;
21833;SDS011;11079;51.092;3.458;2023-07-31T08:20:36;4.60;;;2.45;;
21833;SDS011;11079;51.092;3.458;2023-07-31T08:23:02;4.65;;;2.60;;
21833;SDS011;11079;51.092;3.458;2023-07-31T08:25:28;6.50;;;2.78;;
21833;SDS011;11079;51.092;3.458;2023-07-31T08:27:54;7.53;;;2.80;;
21833;SDS011;11079;51.092;3.458;2023-07-31T08:30:19;4.50;;;2.70;;
21833;SDS011;11079;51.092;3.458;2023-07-31T08:32:45;4.45;;;2.67;;
21833;SDS011;11079;51.092;3.458;2023-07-31T08:35:10;5.68;;;2.42;;
21833;SDS011;11079;51.092;3.458;2023-07-31T08:37:37;3.00;;;2.08;;
21833;SDS011;11079;51.092;3.458;2023-07-31T08:40:03;4.80;;;2.30;;
21833;SDS011;11079;51.092;3.458;2023-07-31T08:42:29;4.40;;;2.10;;
21833;SDS011;11079;51.092;3.458;2023-07-31T08:44:55;5.15;;;2.45;;
21833;SDS011;11079;51.092;3.458;2023-07-31T08:47:21;3.10;;;2.33;;
21833;SDS011;11079;51.092;3.458;2023-07-31T08:49:48;8.27;;;2.60;;
21833;SDS011;11079;51.092;3.458;2023-07-31T08:52:15;3.80;;;2.20;;
21833;SDS011;11079;51.092;3.458;2023-07-31T08:54:41;4.38;;;2.90;;
21833;SDS011;11079;51.092;3.458;2023-07-31T08:57:06;3.97;;;3.10;;
21833;SDS011;11079;51.092;3.458;2023-07-31T08:59:34;3.50;;;2.70;;
21833;SDS011;11079;51.092;3.458;2023-07-31T09:02:03;4.65;;;3.17;;
21833;SDS011;11079;51.092;3.458;2023-07-31T09:04:32;3.00;;;2.30;;
21833;SDS011;11079;51.092;3.458;2023-07-31T09:07:00;4.93;;;2.60;;
21833;SDS011;11079;51.092;3.458;2023-07-31T09:09:28;7.10;;;3.13;;
21833;SDS011;11079;51.092;3.458;2023-07-31T09:11:54;3.03;;;2.72;;
21833;SDS011;11079;51.092;3.458;2023-07-31T09:14:20;5.70;;;3.30;;
21833;SDS011;11079;51.092;3.458;2023-07-31T09:16:56;3.60;;;2.78;;
21833;SDS011;11079;51.092;3.458;2023-07-31T09:19:34;4.05;;;3.28;;
21833;SDS011;11079;51.092;3.458;2023-07-31T09:22:04;4.65;;;3.22;;
21833;SDS011;11079;51.092;3.458;2023-07-31T09:24:31;6.63;;;3.92;;
21833;SDS011;11079;51.092;3.458;2023-07-31T09:26:58;8.75;;;4.30;;
21833;SDS011;11079;51.092;3.458;2023-07-31T09:29:26;6.93;;;4.00;;
21833;SDS011;11079;51.092;3.458;2023-07-31T09:31:53;6.45;;;3.97;;
21833;SDS011;11079;51.092;3.458;2023-07-31T09:34:20;5.07;;;3.78;;
21833;SDS011;11079;51.092;3.458;2023-07-31T09:36:53;7.28;;;4.05;;
21833;SDS011;11079;51.092;3.458;2023-07-31T09:39:19;4.68;;;3.42;;
21833;SDS011;11079;51.092;3.458;2023-07-31T09:41:53;3.97;;;3.42;;
21833;SDS011;11079;51.092;3.458;2023-07-31T09:44:19;5.57;;;3.67;;
21833;SDS011;11079;51.092;3.458;2023-07-31T09:46:45;10.18;;;4.53;;
21833;SDS011;11079;51.092;3.458;2023-07-31T09:49:11;8.75;;;4.47;;
21833;SDS011;11079;51.092;3.458;2023-07-31T09:51:38;8.55;;;3.90;;
21833;SDS011;11079;51.092;3.458;2023-07-31T09:54:09;10.70;;;4.80;;
21833;SDS011;11079;51.092;3.458;2023-07-31T09:56:43;5.90;;;3.75;;
21833;SDS011;11079;51.092;3.458;2023-07-31T09:59:16;8.88;;;4.28;;
21833;SDS011;11079;51.092;3.458;2023-07-31T10:01:43;7.78;;;4.07;;
21833;SDS011;11079;51.092;3.458;2023-07-31T10:04:11;7.85;;;4.03;;
21833;SDS011;11079;51.092;3.458;2023-07-31T10:06:38;4.75;;;3.92;;
21833;SDS011;11079;51.092;3.458;2023-07-31T10:09:06;6.47;;;3.65;;
21833;SDS011;11079;51.092;3.458;2023-07-31T10:11:41;4.85;;;3.45;;
21833;SDS011;11079;51.092;3.458;2023-07-31T10:14:15;4.60;;;3.40;;
21833;SDS011;11079;51.092;3.458;2023-07-31T10:16:44;7.03;;;3.47;;
21833;SDS011;11079;51.092;3.458;2023-07-31T10:19:10;5.43;;;3.35;;
21833;SDS011;11079;51.092;3.458;2023-07-31T10:21:36;5.60;;;3.30;;
21833;SDS011;11079;51.092;3.458;2023-07-31T10:24:03;5.43;;;3.25;;
21833;SDS011;11079;51.092;3.458;2023-07-31T10:26:31;7.50;;;4.28;;
21833;SDS011;11079;51.092;3.458;2023-07-31T10:28:58;6.82;;;3.72;;
21833;SDS011;11079;51.092;3.458;2023-07-31T10:31:24;6.10;;;3.63;;
21833;SDS011;11079;51.092;3.458;2023-07-31T10:33:51;5.60;;;3.50;;
21833;SDS011;11079;51.092;3.458;2023-07-31T10:36:20;6.65;;;4.05;;
21833;SDS011;11079;51.092;3.458;2023-07-31T10:38:49;7.53;;;3.92;;
21833;SDS011;11079;51.092;3.458;2023-07-31T10:41:16;6.45;;;3.58;;
21833;SDS011;11079;51.092;3.458;2023-07-31T10:43:42;6.05;;;3.22;;
21833;SDS011;11079;51.092;3.458;2023-07-31T10:46:11;5.20;;;3.28;;
21833;SDS011;11079;51.092;3.458;2023-07-31T10:48:38;6.75;;;3.35;;
21833;SDS011;11079;51.092;3.458;2023-07-31T10:51:10;6.22;;;3.35;;
21833;SDS011;11079;51.092;3.458;2023-07-31T10:53:41;6.45;;;2.90;;
21833;SDS011;11079;51.092;3.458;2023-07-31T10:56:08;8.77;;;3.90;;
21833;SDS011;11079;51.092;3.458;2023-07-31T10:58:35;9.27;;;3.70;;
21833;SDS011;11079;51.092;3.458;2023-07-31T11:01:02;6.20;;;3.30;;
21833;SDS011;11079;51.092;3.458;2023-07-31T11:03:48;6.25;;;3.63;;
21833;SDS011;11079;51.092;3.458;2023-07-31T11:06:17;5.78;;;3.17;;
21833;SDS011;11079;51.092;3.458;2023-07-31T11:08:44;5.05;;;3.10;;
21833;SDS011;11079;51.092;3.458;2023-07-31T11:11:12;5.85;;;3.17;;
21833;SDS011;11079;51.092;3.458;2023-07-31T11:16:06;6.35;;;3.60;;
21833;SDS011;11079;51.092;3.458;2023-07-31T11:18:31;7.40;;;4.18;;
21833;SDS011;11079;51.092;3.458;2023-07-31T11:20:57;8.27;;;3.80;;
21833;SDS011;11079;51.092;3.458;2023-07-31T11:23:23;7.72;;;3.50;;
21833;SDS011;11079;51.092;3.458;2023-07-31T11:25:49;4.10;;;2.92;;
21833;SDS011;11079;51.092;3.458;2023-07-31T11:28:16;6.13;;;3.47;;
21833;SDS011;11079;51.092;3.458;2023-07-31T11:30:43;6.82;;;3.25;;
21833;SDS011;11079;51.092;3.458;2023-07-31T11:33:11;7.85;;;2.88;;
21833;SDS011;11079;51.092;3.458;2023-07-31T11:35:46;7.63;;;3.13;;
21833;SDS011;11079;51.092;3.458;2023-07-31T11:38:24;5.38;;;3.28;;
21833;SDS011;11079;51.092;3.458;2023-07-31T11:40:54;5.70;;;2.70;;
21833;SDS011;11079;51.092;3.458;2023-07-31T11:43:21;8.02;;;2.63;;
21833;SDS011;11079;51.092;3.458;2023-07-31T11:45:57;6.53;;;2.97;;
21833;SDS011;11079;51.092;3.458;2023-07-31T11:48:32;6.05;;;3.38;;
21833;SDS011;11079;51.092;3.458;2023-07-31T11:51:01;4.25;;;2.88;;
21833;SDS011;11079;51.092;3.458;2023-07-31T11:54:11;7.78;;;3.35;;
21833;SDS011;11079;51.092;3.458;2023-07-31T11:56:25;3.92;;;2.60;;
21833;SDS011;11079;51.092;3.458;2023-07-31T11:58:53;7.47;;;3.08;;
21833;SDS011;11079;51.092;3.458;2023-07-31T12:01:23;5.68;;;3.00;;
21833;SDS011;11079;51.092;3.458;2023-07-31T12:03:49;7.85;;;3.05;;
21833;SDS011;11079;51.092;3.458;2023-07-31T12:06:15;5.13;;;3.03;;
21833;SDS011;11079;51.092;3.458;2023-07-31T12:08:41;7.70;;;3.15;;
21833;SDS011;11079;51.092;3.458;2023-07-31T12:11:07;4.68;;;2.90;;
21833;SDS011;11079;51.092;3.458;2023-07-31T12:13:39;7.47;;;3.17;;
21833;SDS011;11079;51.092;3.458;2023-07-31T12:16:05;5.78;;;3.60;;
21833;SDS011;11079;51.092;3.458;2023-07-31T12:18:35;7.78;;;4.60;;
21833;SDS011;11079;51.092;3.458;2023-07-31T12:21:04;7.68;;;4.43;;
21833;SDS011;11079;51.092;3.458;2023-07-31T12:23:32;8.45;;;4.63;;
21833;SDS011;11079;51.092;3.458;2023-07-31T12:28:46;8.40;;;5.00;;
21833;SDS011;11079;51.092;3.458;2023-07-31T12:31:17;7.05;;;5.07;;
21833;SDS011;11079;51.092;3.458;2023-07-31T12:33:44;7.07;;;5.50;;
21833;SDS011;11079;51.092;3.458;2023-07-31T12:36:29;9.45;;;6.03;;
21833;SDS011;11079;51.092;3.458;2023-07-31T12:38:57;11.25;;;5.82;;
21833;SDS011;11079;51.092;3.458;2023-07-31T12:41:23;11.05;;;5.78;;
21833;SDS011;11079;51.092;3.458;2023-07-31T12:43:49;8.52;;;5.30;;
21833;SDS011;11079;51.092;3.458;2023-07-31T12:46:15;6.35;;;5.15;;
21833;SDS011;11079;51.092;3.458;2023-07-31T12:48:42;8.88;;;5.05;;
21833;SDS011;11079;51.092;3.458;2023-07-31T12:51:07;9.65;;;5.70;;
21833;SDS011;11079;51.092;3.458;2023-07-31T12:53:33;9.40;;;5.70;;
21833;SDS011;11079;51.092;3.458;2023-07-31T12:55:59;7.70;;;5.00;;
21833;SDS011;11079;51.092;3.458;2023-07-31T12:58:26;7.15;;;4.97;;
21833;SDS011;11079;51.092;3.458;2023-07-31T13:00:51;7.68;;;4.30;;
21833;SDS011;11079;51.092;3.458;2023-07-31T13:03:17;8.88;;;4.13;;
21833;SDS011;11079;51.092;3.458;2023-07-31T13:05:42;6.05;;;4.20;;
21833;SDS011;11079;51.092;3.458;2023-07-31T13:08:08;7.00;;;3.88;;
21833;SDS011;11079;51.092;3.458;2023-07-31T13:10:34;6.03;;;3.85;;
21833;SDS011;11079;51.092;3.458;2023-07-31T13:12:59;5.65;;;3.20;;
21833;SDS011;11079;51.092;3.458;2023-07-31T13:15:25;5.68;;;3.58;;
21833;SDS011;11079;51.092;3.458;2023-07-31T13:17:50;5.03;;;3.67;;
21833;SDS011;11079;51.092;3.458;2023-07-31T13:20:16;7.70;;;4.18;;
21833;SDS011;11079;51.092;3.458;2023-07-31T13:22:42;6.20;;;3.95;;
21833;SDS011;11079;51.092;3.458;2023-07-31T13:25:07;5.80;;;4.15;;
21833;SDS011;11079;51.092;3.458;2023-07-31T13:27:34;8.43;;;3.90;;
21833;SDS011;11079;51.092;3.458;2023-07-31T13:30:00;5.95;;;3.85;;
21833;SDS011;11079;51.092;3.458;2023-07-31T13:32:26;7.00;;;3.40;;
21833;SDS011;11079;51.092;3.458;2023-07-31T13:34:52;5.55;;;3.15;;
21833;SDS011;11079;51.092;3.458;2023-07-31T13:37:17;4.38;;;3.10;;
21833;SDS011;11079;51.092;3.458;2023-07-31T13:39:43;5.32;;;3.33;;
21833;SDS011;11079;51.092;3.458;2023-07-31T13:42:09;5.43;;;3.22;;
21833;SDS011;11079;51.092;3.458;2023-07-31T13:44:40;4.88;;;3.13;;
21833;SDS011;11079;51.092;3.458;2023-07-31T13:47:06;4.13;;;3.03;;
21833;SDS011;11079;51.092;3.458;2023-07-31T13:49:33;4.88;;;3.13;;
21833;SDS011;11079;51.092;3.458;2023-07-31T13:51:59;5.47;;;3.08;;
21833;SDS011;11079;51.092;3.458;2023-07-31T13:54:27;4.97;;;2.80;;
21833;SDS011;11079;51.092;3.458;2023-07-31T13:56:53;6.55;;;2.95;;
21833;SDS011;11079;51.092;3.458;2023-07-31T13:59:19;5.50;;;3.13;;
21833;SDS011;11079;51.092;3.458;2023-07-31T14:01:46;5.35;;;3.20;;
21833;SDS011;11079;51.092;3.458;2023-07-31T14:04:12;4.65;;;3.35;;
21833;SDS011;11079;51.092;3.458;2023-07-31T14:06:38;4.45;;;3.20;;
21833;SDS011;11079;51.092;3.458;2023-07-31T14:09:03;5.35;;;3.17;;
21833;SDS011;11079;51.092;3.458;2023-07-31T14:11:31;4.82;;;2.72;;
21833;SDS011;11079;51.092;3.458;2023-07-31T14:13:57;4.60;;;2.97;;
21833;SDS011;11079;51.092;3.458;2023-07-31T14:16:23;7.05;;;3.72;;
21833;SDS011;11079;51.092;3.458;2023-07-31T14:18:48;6.10;;;3.65;;
21833;SDS011;11079;51.092;3.458;2023-07-31T14:21:14;5.32;;;3.53;;
21833;SDS011;11079;51.092;3.458;2023-07-31T14:23:40;5.35;;;3.05;;
21833;SDS011;11079;51.092;3.458;2023-07-31T14:26:06;5.60;;;2.30;;
21833;SDS011;11079;51.092;3.458;2023-07-31T14:28:32;5.63;;;1.88;;
21833;SDS011;11079;51.092;3.458;2023-07-31T14:30:57;3.40;;;2.10;;
21833;SDS011;11079;51.092;3.458;2023-07-31T14:33:23;2.90;;;1.90;;
21833;SDS011;11079;51.092;3.458;2023-07-31T14:35:49;3.17;;;2.00;;
21833;SDS011;11079;51.092;3.458;2023-07-31T14:38:15;2.58;;;1.52;;
21833;SDS011;11079;51.092;3.458;2023-07-31T14:40:41;2.58;;;1.52;;
21833;SDS011;11079;51.092;3.458;2023-07-31T14:43:06;1.75;;;1.50;;
21833;SDS011;11079;51.092;3.458;2023-07-31T14:45:32;2.65;;;1.35;;
21833;SDS011;11079;51.092;3.458;2023-07-31T14:47:58;1.65;;;1.30;;
21833;SDS011;11079;51.092;3.458;2023-07-31T14:50:24;3.55;;;1.45;;
21833;SDS011;11079;51.092;3.458;2023-07-31T14:52:50;2.05;;;1.63;;